Terminal Aerodrome Forecast
Issued by NWS

Home | Current Version | Previous Version | Text Only | Print | Product List | Glossary On
Versions: 1 2 3 4 5 6 7 8 9 10 11 12 13 14 15 16 17 18 19 20
000
FTUS44 KLIX 271140
TAFGPT
TAF
KGPT 271140Z 2712/2812 00000KT P6SM FEW015 SCT020
     FM271400 13004KT P6SM VCTS SCT020CB BKN150
      TEMPO 2718/2721 VRB30KT 2SM TSRA BKN025CB
     FM280000 14005KT P6SM BKN200=

USA.gov is the U.S. government's official web portal to all federal, state and local government web resources and services.